createdAt,value
2016-11-14T06:17:42.916Z,-2.2
2016-11-14T06:18:46.044Z,-2.4
2016-11-14T06:19:49.205Z,-2.4
2016-11-14T06:20:52.343Z,-2.4
2016-11-14T06:21:55.481Z,-2.3
2016-11-14T06:22:58.611Z,-2.3
2016-11-14T06:24:01.759Z,-2.3
2016-11-14T06:25:04.896Z,-2.3
2016-11-14T06:26:08.028Z,-2.3
2016-11-14T06:27:11.158Z,-2.3
2016-11-14T06:28:14.304Z,-2.3
2016-11-14T06:29:17.443Z,-2.4
2016-11-14T06:30:20.576Z,-2.4
2016-11-14T06:31:23.712Z,-2.4
2016-11-14T06:32:26.847Z,-2.3
2016-11-14T06:33:29.986Z,-2.4
2016-11-14T06:34:33.125Z,-2.4
2016-11-14T06:35:36.262Z,-2.4
2016-11-14T06:36:39.393Z,-2.5
2016-11-14T06:37:42.534Z,-2.4
2016-11-14T06:38:45.690Z,-2.4
2016-11-14T06:39:48.835Z,-2.4
2016-11-14T06:40:51.973Z,-2.4
2016-11-14T06:41:55.111Z,-2.4
2016-11-14T06:42:58.255Z,-2.4
2016-11-14T06:44:01.375Z,-2.4
2016-11-14T06:45:04.514Z,-2.4
2016-11-14T06:46:07.644Z,-2.4
2016-11-14T06:47:10.776Z,-2.4
2016-11-14T06:48:13.951Z,-2.4
2016-11-14T06:49:17.057Z,-2.3
2016-11-14T06:50:20.203Z,-2.3
2016-11-14T06:51:23.333Z,-2.3
2016-11-14T06:52:26.468Z,-2.3
2016-11-14T06:53:29.601Z,-2.3
2016-11-14T06:54:32.725Z,-2.3
2016-11-14T06:55:35.858Z,-2.4
2016-11-14T06:56:38.969Z,-2.4
2016-11-14T06:57:42.084Z,-2.3
2016-11-14T06:58:45.193Z,-2.3
2016-11-14T06:59:48.303Z,-2.3
2016-11-14T07:00:51.415Z,-2.3
2016-11-14T07:01:54.519Z,-2.2
2016-11-14T07:02:57.621Z,-2.2
2016-11-14T07:04:04.924Z,-2.2
2016-11-14T07:05:10.003Z,-2.2
2016-11-14T07:06:18.135Z,-2.2
2016-11-14T07:07:22.883Z,-2.1
2016-11-14T07:08:26.035Z,-2.2
2016-11-14T07:09:31.065Z,-2.1
2016-11-14T07:10:43.507Z,-2.1
2016-11-14T07:11:56.306Z,-2.1
2016-11-14T07:12:58.091Z,-2.1
2016-11-14T07:14:01.196Z,-2.1
2016-11-14T07:15:04.305Z,-2
2016-11-14T07:16:07.416Z,-2.1
2016-11-14T07:17:10.634Z,-2.1
2016-11-14T07:18:13.659Z,-2.1
2016-11-14T07:19:16.758Z,-2.1
2016-11-14T07:20:19.857Z,-2.1
2016-11-14T07:21:22.970Z,-2
2016-11-14T07:22:26.064Z,-2
2016-11-14T07:23:29.204Z,-2
2016-11-14T07:24:32.302Z,-2
2016-11-14T07:25:35.416Z,-2
2016-11-14T07:26:38.537Z,-1.9
2016-11-14T07:27:41.621Z,-1.9
2016-11-14T07:28:44.716Z,-1.8
2016-11-14T07:29:47.873Z,-1.8
2016-11-14T07:30:51.047Z,-1.7
2016-11-14T07:31:54.147Z,-1.7
2016-11-14T07:32:57.252Z,-1.7
2016-11-14T07:34:00.360Z,-1.7
2016-11-14T07:35:03.461Z,-1.7
2016-11-14T07:36:06.569Z,-1.7
2016-11-14T07:37:09.682Z,-1.6
2016-11-14T07:38:12.785Z,-1.7
2016-11-14T07:39:15.897Z,-1.7
2016-11-14T07:40:18.997Z,-1.7
2016-11-14T07:41:22.107Z,-1.6
2016-11-14T07:42:25.215Z,-1.6
2016-11-14T07:43:28.343Z,-1.5
2016-11-14T07:44:31.503Z,-1.5
2016-11-14T07:45:34.720Z,-1.5
2016-11-14T07:46:37.717Z,-1.5
2016-11-14T07:47:40.820Z,-1.5
2016-11-14T07:48:44.028Z,-1.5
2016-11-14T07:49:47.139Z,-1.4
2016-11-14T07:50:50.239Z,-1.4
2016-11-14T07:51:53.334Z,-1.4
2016-11-14T07:52:56.451Z,-1.4
2016-11-14T07:53:59.553Z,-1.4
2016-11-14T07:55:02.657Z,-1.4
2016-11-14T07:56:05.782Z,-1.4
2016-11-14T07:57:08.884Z,-1.4
2016-11-14T07:58:11.980Z,-1.4
2016-11-14T07:59:15.082Z,-1.3
2016-11-14T08:00:18.200Z,-1.2
2016-11-14T08:01:21.308Z,-1.1
2016-11-14T08:02:24.452Z,-1.1
2016-11-14T08:03:27.605Z,-1.1
2016-11-14T08:04:30.711Z,-1
2016-11-14T08:05:33.809Z,-1
2016-11-14T08:06:36.911Z,-1
2016-11-14T08:07:40.018Z,-1
2016-11-14T08:08:43.121Z,-0.8
2016-11-14T08:09:46.240Z,-0.8
2016-11-14T08:10:49.341Z,-0.9
2016-11-14T08:11:52.449Z,-0.8
2016-11-14T08:12:55.564Z,-0.8
2016-11-14T08:13:58.675Z,-0.7
2016-11-14T08:15:01.776Z,-0.6
2016-11-14T08:16:04.885Z,-0.6
2016-11-14T08:17:07.987Z,-0.6
2016-11-14T08:18:11.088Z,-0.5
2016-11-14T08:19:14.190Z,-0.4
2016-11-14T08:20:17.326Z,-0.3
2016-11-14T08:21:20.435Z,-0.2
2016-11-14T08:22:23.540Z,-0.2
2016-11-14T08:23:26.649Z,-0.1
2016-11-14T08:24:29.747Z,-0.2
2016-11-14T08:25:32.928Z,-0.2
2016-11-14T08:26:35.956Z,-0.2
2016-11-14T08:27:39.066Z,-0.1
2016-11-14T08:28:42.162Z,0
2016-11-14T08:29:45.260Z,-0.1
2016-11-14T08:30:48.362Z,-0.1
2016-11-14T08:31:51.467Z,0.1
2016-11-14T08:32:54.573Z,0.1
2016-11-14T08:33:57.672Z,0.1
2016-11-14T08:35:00.803Z,0.1
2016-11-14T08:36:03.902Z,0.2
2016-11-14T08:37:07.006Z,0.3
2016-11-14T08:38:10.102Z,0.3
2016-11-14T08:39:13.246Z,0.4
2016-11-14T08:40:16.351Z,0.4
2016-11-14T08:41:19.459Z,0.4
2016-11-14T08:42:22.635Z,0.5
2016-11-14T08:43:25.782Z,0.5
2016-11-14T08:44:28.888Z,0.7
2016-11-14T08:45:31.995Z,0.8
2016-11-14T08:46:35.094Z,0.9
2016-11-14T08:47:38.203Z,0.9
2016-11-14T08:48:41.335Z,0.9
2016-11-14T08:49:44.436Z,1.1
2016-11-14T08:50:47.623Z,1.2
2016-11-14T08:51:50.725Z,1.3
2016-11-14T08:52:53.826Z,1.5
2016-11-14T08:53:56.928Z,1.5
2016-11-14T08:55:00.027Z,1.5
2016-11-14T08:56:03.125Z,1.5
2016-11-14T08:57:06.235Z,1.4
2016-11-14T08:58:09.338Z,1.5
2016-11-14T08:59:12.491Z,1.4
2016-11-14T09:00:15.842Z,1.4
2016-11-14T09:01:18.950Z,1.5
2016-11-14T09:02:22.046Z,1.5
2016-11-14T09:03:25.144Z,1.6
2016-11-14T09:04:28.245Z,1.7
2016-11-14T09:05:31.359Z,1.9
2016-11-14T09:06:34.451Z,1.9
2016-11-14T09:07:37.555Z,1.9
2016-11-14T09:08:40.651Z,2
2016-11-14T09:09:43.762Z,2.1
2016-11-14T09:10:46.856Z,2.3
2016-11-14T09:11:49.958Z,2.4
2016-11-14T09:12:53.066Z,2.6
2016-11-14T09:13:56.157Z,2.6
2016-11-14T09:14:59.264Z,2.5
2016-11-14T09:16:02.367Z,2.6
2016-11-14T09:17:05.466Z,2.7
2016-11-14T09:18:08.589Z,2.8
2016-11-14T09:19:11.686Z,2.8
2016-11-14T09:20:14.784Z,2.8
2016-11-14T09:21:17.895Z,2.6
2016-11-14T09:22:21.119Z,2.6
2016-11-14T09:23:24.194Z,2.6
2016-11-14T09:24:27.307Z,2.6
2016-11-14T09:25:30.403Z,2.7
2016-11-14T09:26:33.504Z,2.8
2016-11-14T09:27:36.603Z,2.9
2016-11-14T09:28:39.707Z,2.9
2016-11-14T09:29:42.831Z,2.9
2016-11-14T09:30:46.126Z,2.7
2016-11-14T09:31:49.231Z,2.9
2016-11-14T09:32:52.339Z,2.9
2016-11-14T09:33:55.432Z,2.8
2016-11-14T09:34:58.731Z,2.8
2016-11-14T09:36:01.841Z,2.6
2016-11-14T09:37:04.942Z,2.5
2016-11-14T09:38:08.041Z,2.6
2016-11-14T09:39:11.142Z,2.9
2016-11-14T09:40:14.246Z,2.8
2016-11-14T09:41:17.353Z,2.8
2016-11-14T09:42:20.460Z,3
2016-11-14T09:43:23.560Z,3.2
2016-11-14T09:44:26.665Z,3.4
2016-11-14T09:45:29.758Z,3.5
2016-11-14T09:46:32.864Z,3.2
2016-11-14T09:47:35.967Z,3
2016-11-14T09:48:39.071Z,3.1
2016-11-14T09:49:42.179Z,3.3
2016-11-14T09:50:45.284Z,3.6
2016-11-14T09:51:48.413Z,3.7
2016-11-14T09:52:51.496Z,3.4
2016-11-14T09:53:54.879Z,3.5
2016-11-14T09:54:58.291Z,3.5
2016-11-14T09:56:01.107Z,3.5
2016-11-14T09:57:04.207Z,3.6
2016-11-14T09:58:07.308Z,4
2016-11-14T09:59:10.415Z,4.2
2016-11-14T10:00:13.530Z,4.4
2016-11-14T10:01:16.745Z,4.1
2016-11-14T10:02:19.744Z,4.2
2016-11-14T10:03:22.847Z,4.2
2016-11-14T10:04:25.940Z,4
2016-11-14T10:05:29.077Z,4
2016-11-14T10:06:32.177Z,4.1
2016-11-14T10:07:35.277Z,4.1
2016-11-14T10:08:38.461Z,4.1
2016-11-14T10:09:41.431Z,4
2016-11-14T10:10:44.526Z,3.9
2016-11-14T10:11:47.630Z,3.9
2016-11-14T10:12:50.740Z,3.6
2016-11-14T10:13:53.836Z,3.7
2016-11-14T10:14:56.938Z,4
2016-11-14T10:16:00.045Z,4.2
2016-11-14T10:17:03.154Z,4.2
2016-11-14T10:18:06.267Z,4.1
2016-11-14T10:19:09.363Z,3.9
2016-11-14T10:20:12.468Z,3.8
2016-11-14T10:21:15.569Z,4.1
2016-11-14T10:22:18.663Z,4.4
2016-11-14T10:23:21.766Z,4.6
2016-11-14T10:24:24.900Z,4.5
2016-11-14T10:25:28.004Z,4.5
2016-11-14T10:26:31.104Z,4.6
2016-11-14T10:27:34.207Z,4.8
2016-11-14T10:28:37.321Z,4.7
2016-11-14T10:29:40.425Z,4.6
2016-11-14T10:30:43.518Z,4.2
2016-11-14T10:31:46.613Z,4.2
2016-11-14T10:32:49.719Z,4.4
2016-11-14T10:33:52.876Z,4.4
2016-11-14T10:34:55.953Z,4.6
2016-11-14T10:35:59.060Z,5.1
2016-11-14T10:37:02.165Z,5.3
2016-11-14T10:38:05.271Z,5.3
2016-11-14T10:39:08.415Z,5.3
2016-11-14T10:40:11.517Z,5.3
2016-11-14T10:41:14.656Z,5
2016-11-14T10:42:17.752Z,5.3
2016-11-14T10:43:20.861Z,5.1
2016-11-14T10:44:23.967Z,4.7
2016-11-14T10:45:27.080Z,5
2016-11-14T10:46:30.177Z,5.2
2016-11-14T10:47:33.367Z,5
2016-11-14T10:48:36.472Z,5.3
2016-11-14T10:49:39.574Z,5.7
2016-11-14T10:50:42.687Z,5.8
2016-11-14T10:51:45.786Z,6.1
2016-11-14T10:52:48.933Z,6.2
2016-11-14T10:53:52.003Z,6
2016-11-14T10:54:55.099Z,5.8
2016-11-14T10:55:58.200Z,5.7
2016-11-14T10:57:01.376Z,5.7
2016-11-14T10:58:04.478Z,5.5
2016-11-14T10:59:07.583Z,5.5
2016-11-14T11:00:10.694Z,5.8
2016-11-14T11:01:13.798Z,6.1
2016-11-14T11:02:16.927Z,6.3
2016-11-14T11:03:20.000Z,6.2
2016-11-14T11:04:23.098Z,6.1
2016-11-14T11:05:26.195Z,5.9
2016-11-14T11:06:29.381Z,5.9
2016-11-14T11:07:32.495Z,5.9
2016-11-14T11:08:35.600Z,6.2
2016-11-14T11:09:38.695Z,6.6
2016-11-14T11:10:41.799Z,6.8
2016-11-14T11:11:44.943Z,6.6
2016-11-14T11:12:48.014Z,6.7
2016-11-14T11:13:51.112Z,6.8
2016-11-14T11:14:54.212Z,6.8
2016-11-14T11:15:57.316Z,6.6
2016-11-14T11:17:00.415Z,6.7
2016-11-14T11:18:03.515Z,6.5
2016-11-14T11:19:06.620Z,6.8
2016-11-14T11:20:09.727Z,6.9
2016-11-14T11:21:12.830Z,7
2016-11-14T11:22:16.157Z,6.8
2016-11-14T11:23:19.261Z,6.7
2016-11-14T11:24:22.367Z,6.5
2016-11-14T11:25:25.473Z,6.7
2016-11-14T11:26:28.572Z,7
2016-11-14T11:27:31.676Z,7.1
2016-11-14T11:28:34.780Z,7.3
2016-11-14T11:29:37.882Z,6.6
2016-11-14T11:30:40.985Z,6.6
2016-11-14T11:31:44.087Z,7.1
2016-11-14T11:32:47.194Z,7.1
2016-11-14T11:33:50.295Z,7.5
2016-11-14T11:34:53.403Z,7.2
2016-11-14T11:35:56.508Z,7.4
2016-11-14T11:36:59.611Z,7.7
2016-11-14T11:38:02.721Z,7.8
2016-11-14T11:39:05.827Z,7.7
2016-11-14T11:40:08.931Z,7.5
2016-11-14T11:41:12.030Z,7.1
2016-11-14T11:42:15.136Z,6.4
2016-11-14T11:43:18.241Z,6.2
2016-11-14T11:44:21.347Z,6.3
2016-11-14T11:45:24.451Z,6.6
2016-11-14T11:46:27.547Z,6.7
2016-11-14T11:47:30.654Z,6.8
2016-11-14T11:48:33.759Z,6.8
2016-11-14T11:49:36.861Z,6.7
2016-11-14T11:50:39.966Z,6.9
2016-11-14T11:51:43.068Z,7.2
2016-11-14T11:52:46.176Z,6.7
2016-11-14T11:53:49.273Z,6.4
2016-11-14T11:54:52.372Z,6.6
2016-11-14T11:55:55.472Z,6.7
2016-11-14T11:56:58.580Z,6.8
2016-11-14T11:58:01.682Z,7
2016-11-14T11:59:04.779Z,7.5
2016-11-14T12:00:07.885Z,7.7
2016-11-14T12:01:10.985Z,7.7
2016-11-14T12:02:14.091Z,7.7
2016-11-14T12:03:17.205Z,7.6
2016-11-14T12:04:20.313Z,7.6
2016-11-14T12:05:23.420Z,7.4
2016-11-14T12:06:26.515Z,7.7
2016-11-14T12:07:29.628Z,7.4
2016-11-14T12:08:32.729Z,7.5
2016-11-14T12:09:35.834Z,7.4
2016-11-14T12:10:38.930Z,7.5
2016-11-14T12:11:42.041Z,7.5
2016-11-14T12:12:45.140Z,7.3
2016-11-14T12:13:48.242Z,7.2
2016-11-14T12:14:51.846Z,7.3
2016-11-14T12:15:54.863Z,7.4
2016-11-14T12:16:57.969Z,7.4
2016-11-14T12:18:01.078Z,7.4
2016-11-14T12:19:04.187Z,7.3
2016-11-14T12:20:07.286Z,6.9
2016-11-14T12:21:10.388Z,6.8
2016-11-14T12:22:13.494Z,7
2016-11-14T12:23:16.605Z,7
2016-11-14T12:24:19.704Z,6.7
2016-11-14T12:25:22.804Z,6.9
2016-11-14T12:26:25.913Z,7.3
2016-11-14T12:27:29.025Z,7.2
2016-11-14T12:28:32.156Z,7.3
2016-11-14T12:29:35.260Z,7.2
2016-11-14T12:30:38.367Z,7.2
2016-11-14T12:31:41.478Z,7.1
2016-11-14T12:32:44.575Z,6.8
2016-11-14T12:33:47.678Z,6.7
2016-11-14T12:34:50.785Z,6.6
2016-11-14T12:35:53.877Z,6.5
2016-11-14T12:36:56.980Z,6.2
2016-11-14T12:38:00.086Z,5.8
2016-11-14T12:39:03.190Z,5.9
2016-11-14T12:40:06.287Z,5.9
2016-11-14T12:41:09.394Z,5.9
2016-11-14T12:42:12.497Z,5.8
2016-11-14T12:43:15.597Z,5.7
2016-11-14T12:44:19.350Z,5.7
2016-11-14T12:45:22.086Z,5.6
2016-11-14T12:46:25.193Z,5.6
2016-11-14T12:47:28.300Z,5.7
2016-11-14T12:48:31.399Z,5.8
2016-11-14T12:49:34.500Z,5.7
2016-11-14T12:50:37.608Z,5.7
2016-11-14T12:51:40.713Z,5.7
2016-11-14T12:52:43.814Z,5.6
2016-11-14T12:53:46.912Z,5.4
2016-11-14T12:54:50.019Z,5.5
2016-11-14T12:55:53.124Z,5.6
2016-11-14T12:56:56.226Z,5.7
2016-11-14T12:57:59.330Z,5.7
2016-11-14T12:59:02.433Z,5.6
2016-11-14T13:00:05.541Z,5.7
2016-11-14T13:01:08.640Z,5.7
2016-11-14T13:02:11.736Z,5.9
2016-11-14T13:03:14.840Z,6
2016-11-14T13:04:17.946Z,6.1
2016-11-14T13:05:21.045Z,5.9
2016-11-14T13:06:24.149Z,5.9
2016-11-14T13:07:27.260Z,5.9
2016-11-14T13:08:30.370Z,5.8
2016-11-14T13:09:33.471Z,5.7
2016-11-14T13:10:36.570Z,5.7
2016-11-14T13:11:39.677Z,5.7
2016-11-14T13:12:42.787Z,5.4
2016-11-14T13:13:45.884Z,5.2
2016-11-14T13:14:48.985Z,5.3
2016-11-14T13:15:52.094Z,5.4
2016-11-14T13:16:55.197Z,5.4
2016-11-14T13:17:58.293Z,5.6
2016-11-14T13:19:01.396Z,5.7
2016-11-14T13:20:04.501Z,5.7
2016-11-14T13:21:07.602Z,5.6
2016-11-14T13:22:10.704Z,5.4
2016-11-14T13:23:13.804Z,5.3
2016-11-14T13:24:16.911Z,5.2
2016-11-14T13:25:20.013Z,5.2
2016-11-14T13:26:23.118Z,5.4
2016-11-14T13:27:26.221Z,5.3
2016-11-14T13:28:29.315Z,5.2
2016-11-14T13:29:32.421Z,5
2016-11-14T13:30:35.520Z,5
2016-11-14T13:31:38.620Z,5
2016-11-14T13:32:41.720Z,5
2016-11-14T13:33:44.824Z,5
2016-11-14T13:34:47.922Z,5
2016-11-14T13:35:51.028Z,4.9
2016-11-14T13:36:54.140Z,4.8
2016-11-14T13:37:57.237Z,4.6
2016-11-14T13:39:00.336Z,4.5
2016-11-14T13:40:03.439Z,4.4
2016-11-14T13:41:06.550Z,4.4
2016-11-14T13:42:09.643Z,4.5
2016-11-14T13:43:12.747Z,4.5
2016-11-14T13:44:15.851Z,4.4
2016-11-14T13:45:18.964Z,4.4
2016-11-14T13:46:22.070Z,4.3
2016-11-14T13:47:25.175Z,4.3
2016-11-14T13:48:28.275Z,4.3
2016-11-14T13:49:31.378Z,4.2
2016-11-14T13:50:34.480Z,4.2
2016-11-14T13:51:37.587Z,4.2
2016-11-14T13:52:40.691Z,4.1
2016-11-14T13:53:43.792Z,4
2016-11-14T13:54:46.896Z,4.1
2016-11-14T13:55:49.996Z,4.1
2016-11-14T13:56:53.100Z,4.1
2016-11-14T13:57:56.207Z,4
2016-11-14T13:58:59.312Z,4
2016-11-14T14:00:02.405Z,4
2016-11-14T14:01:05.502Z,3.9
2016-11-14T14:02:08.607Z,3.9
2016-11-14T14:03:11.709Z,3.9
2016-11-14T14:04:14.804Z,3.8
2016-11-14T14:05:17.917Z,3.8
2016-11-14T14:06:21.023Z,3.9
2016-11-14T14:07:24.131Z,3.9
2016-11-14T14:08:27.227Z,3.9
2016-11-14T14:09:30.326Z,3.9
2016-11-14T14:10:33.432Z,3.9
2016-11-14T14:11:36.544Z,3.9
2016-11-14T14:12:39.656Z,3.9
2016-11-14T14:13:42.761Z,3.7
2016-11-14T14:14:45.862Z,3.8
2016-11-14T14:15:48.968Z,3.7
2016-11-14T14:16:52.074Z,3.6
2016-11-14T14:17:55.175Z,3.6
2016-11-14T14:18:58.276Z,3.6
2016-11-14T14:20:01.376Z,3.7
2016-11-14T14:21:04.476Z,3.7
2016-11-14T14:22:07.583Z,3.7
2016-11-14T14:23:10.690Z,3.6
2016-11-14T14:24:13.798Z,3.6
2016-11-14T14:25:16.899Z,3.5
2016-11-14T14:26:20.004Z,3.5
2016-11-14T14:27:23.104Z,3.5
2016-11-14T14:28:26.202Z,3.6
2016-11-14T14:29:29.301Z,3.5
2016-11-14T14:30:32.408Z,3.5
2016-11-14T14:31:35.516Z,3.5
2016-11-14T14:32:38.619Z,3.5
2016-11-14T14:33:41.726Z,3.4
2016-11-14T14:34:44.823Z,3.4
2016-11-14T14:35:47.926Z,3.3
2016-11-14T14:36:51.025Z,3.3
2016-11-14T14:37:54.129Z,3.2
2016-11-14T14:38:57.235Z,3.3
2016-11-14T14:40:00.345Z,3.2
2016-11-14T14:41:03.445Z,3.2
2016-11-14T14:42:06.543Z,3.1
2016-11-14T14:43:09.650Z,3.2
2016-11-14T14:44:12.756Z,3.1
2016-11-14T14:45:15.859Z,3.1
2016-11-14T14:46:18.958Z,3
2016-11-14T14:47:22.058Z,3
2016-11-14T14:48:25.165Z,3
2016-11-14T14:49:28.262Z,3
2016-11-14T14:50:31.366Z,2.9
2016-11-14T14:51:34.472Z,2.9
2016-11-14T14:52:37.579Z,2.9
2016-11-14T14:53:40.680Z,2.9
2016-11-14T14:54:43.783Z,2.9
2016-11-14T14:55:46.884Z,2.9
2016-11-14T14:56:49.987Z,2.9
2016-11-14T14:57:53.098Z,2.9
2016-11-14T14:58:56.201Z,2.9
2016-11-14T14:59:59.300Z,2.8
2016-11-14T15:01:02.407Z,2.8
2016-11-14T15:02:05.511Z,2.8
2016-11-14T15:03:08.619Z,2.8
2016-11-14T15:04:11.725Z,2.8
2016-11-14T15:05:14.830Z,2.8
2016-11-14T15:06:17.930Z,2.8
2016-11-14T15:07:21.037Z,2.7
2016-11-14T15:08:24.141Z,2.7
2016-11-14T15:09:27.250Z,2.6
2016-11-14T15:10:30.343Z,2.7
2016-11-14T15:11:33.447Z,2.6
2016-11-14T15:12:36.555Z,2.6
2016-11-14T15:17:26.925Z,2.6
2016-11-14T15:18:30.030Z,2.5
2016-11-14T15:19:33.126Z,2.5
2016-11-14T15:20:36.226Z,2.4
2016-11-14T15:21:39.325Z,2.5
2016-11-14T15:22:42.426Z,2.4
2016-11-14T15:23:45.528Z,2.4
2016-11-14T15:24:48.634Z,2.5
2016-11-14T15:25:51.741Z,2.4
2016-11-14T15:26:54.846Z,2.4
2016-11-14T15:27:57.941Z,2.4
2016-11-14T15:29:01.048Z,2.4
2016-11-14T15:30:04.156Z,2.4
2016-11-14T15:31:07.255Z,2.4
2016-11-14T15:32:10.354Z,2.5
2016-11-14T15:33:13.457Z,2.4
2016-11-14T15:34:16.561Z,2.5
2016-11-14T15:35:19.657Z,2.5
2016-11-14T15:36:22.770Z,2.4
2016-11-14T15:37:25.871Z,2.4
2016-11-14T15:38:28.976Z,2.4
2016-11-14T15:39:32.072Z,2.4
2016-11-14T15:40:35.172Z,2.4
2016-11-14T15:41:38.274Z,2.5
2016-11-14T15:42:41.376Z,2.5
2016-11-14T15:43:44.698Z,2.4
2016-11-14T15:44:47.806Z,2.4
2016-11-14T15:45:50.907Z,2.4
2016-11-14T15:46:54.005Z,2.4
2016-11-14T15:47:57.109Z,2.4
2016-11-14T15:49:00.213Z,2.5
2016-11-14T15:50:03.317Z,2.4
2016-11-14T15:51:06.413Z,2.4
2016-11-14T15:52:09.514Z,2.4
2016-11-14T15:53:12.620Z,2.3
2016-11-14T15:54:15.730Z,2.4
2016-11-14T15:55:18.835Z,2.4
2016-11-14T15:56:21.930Z,2.3
2016-11-14T15:57:25.033Z,2.3
2016-11-14T15:58:28.140Z,2.4
2016-11-14T15:59:31.237Z,2.4
2016-11-14T16:00:34.338Z,2.4
2016-11-14T16:01:37.442Z,2.4
2016-11-14T16:02:40.547Z,2.4
2016-11-14T16:03:43.648Z,2.4
2016-11-14T16:04:46.749Z,2.3
2016-11-14T16:05:49.848Z,2.4
2016-11-14T16:06:52.953Z,2.3
2016-11-14T16:07:56.060Z,2.3
2016-11-14T16:08:59.163Z,2.3
2016-11-14T16:10:02.269Z,2.3
2016-11-14T16:11:05.367Z,2.4
2016-11-14T16:12:08.480Z,2.3
2016-11-14T16:13:11.585Z,2.3
2016-11-14T16:14:14.694Z,2.4
2016-11-14T16:15:17.793Z,2.4
2016-11-14T16:16:20.886Z,2.4
2016-11-14T16:17:23.992Z,2.4
2016-11-14T16:18:27.100Z,2.3
2016-11-14T16:19:30.196Z,2.3
2016-11-14T16:21:41.877Z,2.3
2016-11-14T16:22:44.983Z,2.3
2016-11-14T16:23:55.236Z,2.3
2016-11-14T16:24:58.342Z,2.3
2016-11-14T16:26:01.441Z,2.3
2016-11-14T16:27:04.543Z,2.3
2016-11-14T16:29:16.218Z,2.3
2016-11-14T16:30:19.325Z,2.3
2016-11-14T16:31:22.426Z,2.2
2016-11-14T16:32:25.529Z,2.2
2016-11-14T16:33:28.637Z,2.3
2016-11-14T16:34:31.732Z,2.3
2016-11-14T16:35:41.852Z,2.3
2016-11-14T16:36:44.959Z,2.3
2016-11-14T16:37:48.059Z,2.3
2016-11-14T16:38:51.160Z,2.2
2016-11-14T16:39:54.259Z,2.2
2016-11-14T16:40:57.360Z,2.2
2016-11-14T16:42:00.463Z,2.2
2016-11-14T16:44:12.142Z,2.2
2016-11-14T16:45:15.250Z,2.2
2016-11-14T16:46:18.351Z,2.2
2016-11-14T16:47:21.456Z,2.2
2016-11-14T16:48:24.579Z,2.2
2016-11-14T16:49:28.109Z,2.2
2016-11-14T16:50:31.210Z,2.2
2016-11-14T16:51:34.310Z,2.2
2016-11-14T16:52:44.563Z,2.2
2016-11-14T16:53:56.107Z,2.2
2016-11-14T16:54:59.219Z,2.2
2016-11-14T16:56:02.324Z,2.2
2016-11-14T16:57:05.426Z,2.2
2016-11-14T16:58:08.530Z,2.2
2016-11-14T16:59:11.633Z,2.2
2016-11-14T23:41:40.211Z,2.8
2016-11-14T23:42:43.323Z,2.7
2016-11-14T23:43:46.446Z,2.7
2016-11-14T23:44:49.552Z,2.7
2016-11-14T23:45:52.664Z,2.7
2016-11-14T23:46:55.760Z,2.7
2016-11-14T23:47:58.882Z,2.6
2016-11-14T23:49:02.033Z,2.7
2016-11-14T23:50:05.146Z,2.7
2016-11-14T23:51:08.243Z,2.7
2016-11-14T23:52:11.340Z,2.7
2016-11-14T23:53:14.449Z,2.7
2016-11-14T23:54:17.552Z,2.7
2016-11-14T23:55:20.658Z,2.7
2016-11-14T23:56:23.752Z,2.6
2016-11-14T23:57:26.862Z,2.7
2016-11-14T23:58:29.982Z,2.7
2016-11-14T23:59:33.064Z,2.6
